Roxbury, Pennsylvania
Current Conditions -  °F | °C
As of 3:53 PM on Friday 19 Dec 2014 (Local Time) from KHGR Reporting Station
Broken Clouds Broken Clouds  
Wind Chill: 27°   Ceiling: 3200
Heat Index: 36°   Visibility: 10mi
Dew Point: 22°   Wind: 14mph
Humidity: 57%   Direction: 300°WNW
Pressure: 30.15"   Gusts: NA
Location:  40.11°N, 77.66°W
Report Text: KHGR 192053Z AUTO 30012KT 10SM BKN032 02/M06 A3015 RMK AO2 SLP227 T00221056 53010
Loading
Personal Weather Stations






























Interactive Weather Map New forecast layout! Learn more

10-Day Weather Forecast

Advertisements
Track Severe Weather on mobile